This is the latest recevied weather packets stored in our database for station/object HS5FXK-3. If no packets are shown the sender has not sent any weather packets the latest 1 day(s).
| Time | Temp. | Humidity | Pressure | Rain* | Wind** | Luminosity | Snow |
|---|---|---|---|---|---|---|---|
| 1778031158 | 31.11° C | 83% | 980 hPa | - | 0 m/s | 0 W/m² | - |
| 1778030245 | 30.56° C | 89% | 980 hPa | - | 0 m/s | 0 W/m² | - |
| 1778029332 | 29.44° C | 96% | 980 hPa | - | 0 m/s | 0 W/m² | - |
| 1778028420 | 28.89° C | 97% | 980 hPa | - | 0 m/s | 0 W/m² | - |
| 1778027292 | 28.33° C | 99% | 979 hPa | - | 0 m/s | 0 W/m² | - |
| 1778024549 | 27.22° C | 99% | 979 hPa | - | 0 m/s | 0 W/m² | - |
| 1778023638 | 27.22° C | 99% | 978 hPa | - | 0 m/s | 0 W/m² | - |
| 1778021811 | 27.22° C | 99% | 978 hPa | - | 0 m/s | 0 W/m² | - |
| 1778020898 | 27.22° C | 99% | 978 hPa | - | 0 m/s | 0 W/m² | - |
| 1778019071 | 27.22° C | 99% | 978 hPa | - | 0 m/s | 0 W/m² | - |
| 1778017249 | 27.78° C | 99% | 978 hPa | - | 0 m/s | 0 W/m² | - |
| 1778016334 | 27.78° C | 99% | 978 hPa | - | 0 m/s | 0 W/m² | - |
| 1778015421 | 28.33° C | 99% | 978 hPa | - | 0 m/s | 0 W/m² | - |
| 1778014507 | 28.33° C | 99% | 978 hPa | - | 0 m/s | 0 W/m² | - |
| 1778012683 | 28.33° C | 99% | 978 hPa | - | 0 m/s | 0 W/m² | - |
| 1778010856 | 27.78° C | 99% | 978 hPa | - | 0 m/s | 0 W/m² | - |
| 1778009946 | 27.78° C | 99% | 978 hPa | - | 0 m/s | 0 W/m² | - |
| 1778009031 | 27.78° C | 99% | 978 hPa | - | 0 m/s | 0 W/m² | - |
| 1778008118 | 28.33° C | 99% | 978 hPa | - | 0 m/s | 0 W/m² | - |
| 1778007206 | 28.33° C | 99% | 978 hPa | - | 0 m/s | 0 W/m² | - |
| 1778006293 | 28.33° C | 99% | 978 hPa | - | 0 m/s | 0 W/m² | - |
| 1778005379 | 28.33° C | 99% | 978 hPa | - | 0 m/s | 0 W/m² | - |
| 1778004467 | 28.33° C | 98% | 978 hPa | - | 0 m/s | 0 W/m² | - |
| 1778003555 | 28.33° C | 97% | 979 hPa | - | 0 m/s | 0 W/m² | - |
| 1778002642 | 28.33° C | 97% | 979 hPa | - | 0 m/s | 0 W/m² | - |
* Rain since midnight (hover to see other rain measurements)
** Current wind speed in m/s (hover to see current wind gust speed)